Time;durP1;ratioP1;P1;durP2;ratioP2;P2;SDS_P1;SDS_P2;PMS_P1;PMS_P2;Temp;Humidity;BMP_temperature;BMP_pressure;BME280_temperature;BME280_humidity;BME280_pressure;Samples;Min_cycle;Max_cycle;Signal;HPM_P1;HPM_P2
2023/08/15 00:02:02;;;;;;;11.53;5.00;;;;;;;21.27;81.16;101023.00;5285156;28;20490;-75
2023/08/15 00:04:35;;;;;;;10.25;4.47;;;;;;;21.42;81.71;101013.38;5285015;28;20032;-75
2023/08/15 00:07:06;;;;;;;9.10;4.22;;;;;;;21.53;81.80;101004.84;5284864;28;20043;-75
2023/08/15 00:09:38;;;;;;;10.93;4.30;;;;;;;21.51;81.76;101006.72;5284300;28;20041;-75
2023/08/15 00:12:09;;;;;;;11.33;4.80;;;;;;;21.47;82.97;101001.53;5284864;28;20032;-75
2023/08/15 00:14:41;;;;;;;8.67;4.30;;;;;;;21.47;83.88;100998.91;5283661;28;20033;-76
2023/08/15 00:17:12;;;;;;;9.40;4.20;;;;;;;21.26;84.45;100981.53;5284983;28;20028;-75
2023/08/15 00:19:43;;;;;;;14.63;5.10;;;;;;;21.06;84.84;101002.00;5284500;28;20039;-76
2023/08/15 00:22:17;;;;;;;9.17;4.20;;;;;;;21.29;85.20;100991.97;5283410;28;20107;-75
2023/08/15 00:24:48;;;;;;;6.40;3.38;;;;;;;21.23;86.23;100990.47;5284622;28;20040;-76
2023/08/15 00:27:20;;;;;;;8.87;3.87;;;;;;;21.13;86.27;101005.19;5284455;28;20486;-75
2023/08/15 00:29:51;;;;;;;11.50;4.50;;;;;;;21.13;86.04;101006.03;5283370;28;20425;-76
2023/08/15 00:32:22;;;;;;;11.87;5.17;;;;;;;20.99;84.87;101010.38;5284010;28;20036;-75
2023/08/15 00:34:54;;;;;;;10.03;3.93;;;;;;;20.90;84.15;101014.38;5267156;28;20088;-74
2023/08/15 00:37:25;;;;;;;10.67;4.20;;;;;;;20.54;85.96;101021.47;5245993;28;20090;-74
2023/08/15 00:39:56;;;;;;;11.10;4.50;;;;;;;20.56;86.61;101014.28;5263808;28;20029;-75
2023/08/15 00:42:28;;;;;;;8.33;4.33;;;;;;;20.67;86.19;101016.41;5246239;28;20037;-75
2023/08/15 00:44:59;;;;;;;11.37;4.50;;;;;;;20.26;86.29;101026.41;5246203;28;20423;-75
2023/08/15 00:47:31;;;;;;;7.73;4.57;;;;;;;20.41;85.59;101028.28;5263188;28;20075;-75
2023/08/15 00:50:05;;;;;;;10.43;4.50;;;;;;;20.10;86.06;101034.25;5264083;28;20040;-76
2023/08/15 00:52:37;;;;;;;9.73;4.75;;;;;;;19.80;87.98;101037.44;5263363;28;20040;-74
2023/08/15 00:55:09;;;;;;;13.75;4.53;;;;;;;19.70;88.55;101036.13;5263216;28;20025;-74
2023/08/15 00:57:41;;;;;;;12.90;4.30;;;;;;;19.65;87.54;101031.91;5245258;28;20087;-74
2023/08/15 01:00:14;;;;;;;13.13;4.90;;;;;;;19.47;87.33;101033.63;5263327;28;20420;-75
2023/08/15 01:02:45;;;;;;;10.73;4.53;;;;;;;19.44;86.54;101030.25;5263041;28;20033;-74
2023/08/15 01:05:18;;;;;;;16.30;4.57;;;;;;;19.35;85.28;101022.75;5262986;28;20052;-74
2023/08/15 01:07:49;;;;;;;12.00;4.53;;;;;;;19.18;84.25;101024.38;5262783;28;20033;-74
2023/08/15 01:10:21;;;;;;;11.23;3.90;;;;;;;19.24;84.07;101029.38;5262962;28;20032;-75
2023/08/15 01:13:07;;;;;;;8.67;3.57;;;;;;;19.13;83.34;101023.72;5262893;28;20052;-74
2023/08/15 01:15:45;;;;;;;12.40;3.97;;;;;;;19.08;83.37;101013.38;5262687;28;20029;-75
2023/08/15 01:18:39;;;;;;;13.77;4.38;;;;;;;19.21;82.97;101020.75;5262510;28;20480;-75
2023/08/15 01:21:16;;;;;;;13.07;4.95;;;;;;;18.99;83.65;101020.84;5262713;28;20075;-74
2023/08/15 01:23:49;;;;;;;10.18;4.07;;;;;;;18.94;83.90;101013.97;5245728;28;20460;-74
2023/08/15 01:26:20;;;;;;;13.35;4.45;;;;;;;19.09;83.60;101022.13;5262941;28;20025;-74
2023/08/15 01:28:52;;;;;;;11.80;4.27;;;;;;;19.08;83.29;101012.50;5262753;28;20039;-75
2023/08/15 01:31:42;;;;;;;11.87;3.77;;;;;;;19.01;83.34;101013.69;5244804;28;20032;-75
2023/08/15 01:34:28;;;;;;;9.82;3.58;;;;;;;18.94;83.02;101024.53;5262638;28;20055;-75
2023/08/15 01:37:14;;;;;;;9.18;4.30;;;;;;;19.04;83.08;101040.84;5262626;28;20033;-75
2023/08/15 01:39:49;;;;;;;11.57;4.00;;;;;;;18.76;84.39;101057.84;5262379;28;20029;-75
2023/08/15 01:42:22;;;;;;;9.63;4.50;;;;;;;18.85;83.84;101059.28;5262283;28;20072;-75
2023/08/15 01:44:55;;;;;;;10.05;3.67;;;;;;;18.92;83.20;101054.59;5262284;28;20036;-75
2023/08/15 01:47:32;;;;;;;9.45;4.55;;;;;;;18.82;83.81;101062.03;5262588;28;20036;-75
2023/08/15 01:50:04;;;;;;;11.65;4.25;;;;;;;18.79;83.84;101070.09;5261984;28;20098;-75
2023/08/15 01:52:36;;;;;;;10.52;4.15;;;;;;;18.58;85.36;101069.22;5262714;28;20134;-74
2023/08/15 01:55:07;;;;;;;10.43;3.67;;;;;;;18.93;84.81;101080.06;5262933;28;20235;-74
2023/08/15 01:57:39;;;;;;;8.68;3.58;;;;;;;18.78;84.68;101077.13;5262849;28;20495;-74
2023/08/15 02:00:10;;;;;;;11.77;3.70;;;;;;;19.02;84.50;101079.69;5262982;28;20033;-73
2023/08/15 02:02:42;;;;;;;9.73;4.20;;;;;;;18.89;84.53;101089.91;5262505;28;20037;-74
2023/08/15 02:05:14;;;;;;;9.82;3.53;;;;;;;18.82;84.74;101077.88;5262362;28;20041;-74
2023/08/15 02:07:45;;;;;;;9.67;3.53;;;;;;;18.75;85.20;101086.97;5244334;28;20041;-73
2023/08/15 02:10:17;;;;;;;12.40;4.50;;;;;;;18.78;84.50;101085.03;5262242;28;20037;-74
2023/08/15 02:12:48;;;;;;;12.27;4.10;;;;;;;18.65;84.69;101088.28;5262513;28;20036;-74
2023/08/15 02:15:20;;;;;;;14.73;3.80;;;;;;;18.75;84.26;101095.75;5262208;28;20024;-74
2023/08/15 02:17:51;;;;;;;12.97;4.20;;;;;;;18.60;84.90;101104.31;5261729;28;20037;-75
2023/08/15 02:20:22;;;;;;;13.30;4.23;;;;;;;18.81;84.39;101112.28;5262036;28;20029;-75
2023/08/15 02:22:54;;;;;;;11.03;4.37;;;;;;;18.76;84.61;101112.47;5244296;28;20033;-76
2023/08/15 02:25:25;;;;;;;10.07;3.80;;;;;;;18.54;85.53;101115.13;5261817;28;20040;-76
2023/08/15 02:27:56;;;;;;;10.73;3.63;;;;;;;18.53;86.04;101109.00;5262070;28;20029;-76
2023/08/15 02:30:28;;;;;;;11.73;3.97;;;;;;;18.44;86.86;101114.63;5262118;28;20033;-76
2023/08/15 02:32:59;;;;;;;12.57;4.07;;;;;;;18.48;86.30;101116.25;5262792;28;20040;-75
2023/08/15 02:35:31;;;;;;;13.17;4.13;;;;;;;18.27;87.25;101111.81;5263202;28;20477;-76
2023/08/15 02:38:03;;;;;;;9.15;4.00;;;;;;;18.08;88.89;101109.91;5244173;28;20029;-75
2023/08/15 02:40:34;;;;;;;14.87;5.27;;;;;;;18.18;89.28;101106.00;5261952;28;20119;-75
2023/08/15 02:43:06;;;;;;;10.53;4.43;;;;;;;17.96;90.53;101107.75;5261780;28;20513;-74
2023/08/15 02:45:37;;;;;;;12.20;4.53;;;;;;;17.93;91.05;101102.59;5261608;28;20029;-75
2023/08/15 02:48:08;;;;;;;10.87;4.03;;;;;;;17.89;91.02;101100.97;5261602;28;20057;-76
2023/08/15 02:50:40;;;;;;;11.53;4.63;;;;;;;17.89;91.90;101099.22;5262282;28;20400;-75
2023/08/15 02:53:11;;;;;;;9.23;3.87;;;;;;;18.02;91.83;101103.09;5244396;28;20480;-74
2023/08/15 02:55:42;;;;;;;16.50;4.10;;;;;;;17.79;92.54;101103.94;5261778;28;20021;-74
2023/08/15 02:58:14;;;;;;;10.13;3.87;;;;;;;17.78;92.38;101102.22;5265477;28;20029;-74
2023/08/15 03:00:45;;;;;;;11.03;4.17;;;;;;;17.69;93.71;101102.56;5248017;28;20033;-74
2023/08/15 03:03:16;;;;;;;13.17;4.33;;;;;;;17.68;94.59;101114.03;5247954;28;20077;-75
2023/08/15 03:05:48;;;;;;;11.73;3.93;;;;;;;17.59;95.12;101114.38;5265535;28;20415;-75
2023/08/15 03:08:19;;;;;;;14.53;4.30;;;;;;;17.68;95.19;101114.88;5265704;28;20028;-75
2023/08/15 03:10:51;;;;;;;12.63;5.03;;;;;;;17.74;94.34;101107.66;5266150;28;20068;-76
2023/08/15 03:13:22;;;;;;;11.07;3.83;;;;;;;17.51;96.09;101104.09;5265788;28;20029;-75
2023/08/15 03:15:55;;;;;;;12.27;4.80;;;;;;;17.44;96.69;101100.84;5265779;28;20032;-75
2023/08/15 03:18:27;;;;;;;10.77;4.05;;;;;;;17.64;96.70;101104.50;5265138;28;20107;-76
2023/08/15 03:21:03;;;;;;;12.20;5.30;;;;;;;17.59;96.83;101109.09;5265112;28;20120;-75
2023/08/15 03:23:37;;;;;;;10.85;4.60;;;;;;;17.59;96.90;101106.47;5265211;28;20044;-76
2023/08/15 03:26:08;;;;;;;10.50;4.50;;;;;;;17.55;97.76;101110.09;5265101;28;20108;-75
2023/08/15 03:28:40;;;;;;;11.57;4.47;;;;;;;17.36;98.51;101104.69;5264739;28;20108;-75
2023/08/15 03:31:11;;;;;;;14.00;4.57;;;;;;;17.50;98.16;101103.25;5264548;28;20496;-75
2023/08/15 03:33:42;;;;;;;14.23;4.57;;;;;;;17.49;98.26;101093.63;5266499;28;20068;-74
2023/08/15 03:36:14;;;;;;;10.23;4.20;;;;;;;17.47;98.26;101102.50;5265005;28;20069;-74
2023/08/15 03:38:45;;;;;;;17.83;6.23;;;;;;;17.41;99.08;101111.47;5264720;28;20039;-75
2023/08/15 03:41:16;;;;;;;12.47;5.10;;;;;;;17.50;98.56;101110.31;5264530;28;20029;-75
2023/08/15 03:43:48;;;;;;;11.70;4.73;;;;;;;17.41;99.00;101119.38;5264383;28;20061;-74
2023/08/15 03:46:19;;;;;;;12.23;4.40;;;;;;;17.21;99.94;101116.59;5264547;28;20033;-75
2023/08/15 03:48:51;;;;;;;8.77;4.10;;;;;;;17.21;100.00;101120.13;5246191;28;20029;-75
2023/08/15 03:51:22;;;;;;;12.13;4.80;;;;;;;17.24;100.00;101138.44;5264567;28;20072;-75
2023/08/15 03:53:53;;;;;;;16.60;5.93;;;;;;;17.09;100.00;101134.56;5264279;28;20040;-74
2023/08/15 03:56:25;;;;;;;12.63;5.17;;;;;;;17.10;100.00;101138.91;5264407;28;20033;-75
2023/08/15 03:58:56;;;;;;;15.37;5.40;;;;;;;17.03;100.00;101134.75;5264253;28;20029;-75
2023/08/15 04:01:27;;;;;;;11.43;4.93;;;;;;;17.02;100.00;101134.84;5264026;28;20170;-75
2023/08/15 04:03:59;;;;;;;15.57;5.30;;;;;;;16.90;100.00;101129.03;5264164;28;20037;-74
2023/08/15 04:06:30;;;;;;;15.77;6.00;;;;;;;16.84;100.00;101137.13;5264135;28;20086;-74
2023/08/15 04:09:01;;;;;;;17.27;6.47;;;;;;;16.80;100.00;101129.41;5246174;28;20064;-75
2023/08/15 04:11:33;;;;;;;12.73;5.47;;;;;;;16.74;100.00;101133.06;5263951;28;20025;-75
2023/08/15 04:14:04;;;;;;;13.83;6.50;;;;;;;16.69;100.00;101133.22;5263960;28;20028;-75
2023/08/15 04:16:36;;;;;;;13.10;6.87;;;;;;;16.74;100.00;101126.06;5263894;28;20033;-75
2023/08/15 04:19:08;;;;;;;16.35;5.40;;;;;;;16.84;100.00;101115.19;5263205;28;20029;-75
2023/08/15 04:21:39;;;;;;;15.17;6.07;;;;;;;16.80;100.00;101114.44;5246083;28;20401;-75
2023/08/15 04:24:10;;;;;;;15.23;5.90;;;;;;;16.70;100.00;101113.91;5263468;28;20503;-74
2023/08/15 04:26:42;;;;;;;12.60;6.43;;;;;;;16.62;100.00;101115.06;5263714;28;20515;-75
2023/08/15 04:29:13;;;;;;;11.07;6.33;;;;;;;16.67;100.00;101121.03;5263373;28;20037;-76
2023/08/15 04:31:44;;;;;;;13.70;6.80;;;;;;;16.62;100.00;101131.72;5263433;28;20040;-76
2023/08/15 04:34:16;;;;;;;16.40;6.83;;;;;;;16.50;100.00;101126.84;5263466;28;20056;-75
2023/08/15 04:36:48;;;;;;;11.03;5.40;;;;;;;16.49;100.00;101133.88;5263542;28;20531;-74
2023/08/15 04:39:21;;;;;;;15.13;5.13;;;;;;;16.58;100.00;101135.34;5263516;28;20035;-75
2023/08/15 04:41:52;;;;;;;9.80;4.97;;;;;;;16.53;100.00;101132.84;5263436;28;20427;-76
2023/08/15 04:44:24;;;;;;;13.40;6.17;;;;;;;16.43;100.00;101139.34;5263145;28;20032;-75
2023/08/15 04:46:55;;;;;;;13.90;5.93;;;;;;;16.41;100.00;101144.63;5263097;28;20439;-75
2023/08/15 04:49:26;;;;;;;10.43;6.07;;;;;;;16.38;100.00;101143.88;5263070;28;20033;-76
2023/08/15 04:51:58;;;;;;;10.07;5.80;;;;;;;16.48;100.00;101140.03;5245538;28;20063;-76
2023/08/15 04:54:29;;;;;;;14.13;6.43;;;;;;;16.40;100.00;101161.34;5262823;28;20097;-76
2023/08/15 04:57:00;;;;;;;13.10;6.13;;;;;;;16.39;100.00;101161.41;5245392;28;20530;-76
2023/08/15 04:59:32;;;;;;;12.53;5.27;;;;;;;16.43;100.00;101167.41;5262945;28;20029;-76
2023/08/15 05:02:03;;;;;;;17.57;5.80;;;;;;;16.42;100.00;101171.81;5245567;28;20120;-75
2023/08/15 05:04:34;;;;;;;15.07;6.30;;;;;;;16.46;100.00;101177.84;5263014;28;20087;-75
2023/08/15 05:07:06;;;;;;;14.73;5.87;;;;;;;16.45;100.00;101190.13;5262713;28;20036;-75
2023/08/15 05:09:39;;;;;;;13.07;6.23;;;;;;;16.53;100.00;101195.16;5262814;28;20033;-75
2023/08/15 05:12:10;;;;;;;14.07;5.60;;;;;;;16.57;100.00;101202.06;5262796;28;20029;-76
2023/08/15 05:14:42;;;;;;;19.33;6.47;;;;;;;16.48;100.00;101199.72;5262777;28;20040;-75
2023/08/15 05:17:13;;;;;;;13.13;5.60;;;;;;;16.60;100.00;101201.97;5262500;28;20116;-76
2023/08/15 05:19:44;;;;;;;12.60;6.87;;;;;;;16.60;100.00;101212.50;5261951;28;20024;-76
2023/08/15 05:22:16;;;;;;;13.03;6.03;;;;;;;16.61;100.00;101222.09;5244981;28;20029;-76
2023/08/15 05:24:47;;;;;;;11.93;5.40;;;;;;;16.65;100.00;101215.84;5262381;28;20044;-75
2023/08/15 05:27:19;;;;;;;16.00;5.83;;;;;;;16.66;100.00;101225.44;5244807;28;20028;-74
2023/08/15 05:29:50;;;;;;;14.10;6.17;;;;;;;16.80;100.00;101222.38;5262645;28;20131;-76
2023/08/15 05:32:21;;;;;;;14.77;6.13;;;;;;;16.85;100.00;101227.50;5262375;28;20059;-75
2023/08/15 05:34:53;;;;;;;13.43;6.33;;;;;;;16.83;100.00;101231.97;5262467;28;20091;-75
2023/08/15 05:37:24;;;;;;;12.03;6.40;;;;;;;16.91;100.00;101224.72;5262403;28;20449;-76
2023/08/15 05:39:56;;;;;;;13.93;6.77;;;;;;;16.97;100.00;101221.00;5262313;28;20083;-74
2023/08/15 05:42:27;;;;;;;13.93;5.93;;;;;;;16.97;100.00;101216.63;5262269;28;20056;-75
2023/08/15 05:44:58;;;;;;;18.63;7.37;;;;;;;17.03;100.00;101211.13;5262036;28;20091;-75
2023/08/15 05:47:30;;;;;;;11.77;6.57;;;;;;;17.09;100.00;101221.47;5262007;28;20112;-77
2023/08/15 05:50:02;;;;;;;13.23;7.30;;;;;;;17.14;100.00;101223.97;5261863;28;20159;-76
2023/08/15 05:52:35;;;;;;;22.25;7.68;;;;;;;17.28;100.00;101231.41;5244242;28;20025;-76
2023/08/15 05:55:07;;;;;;;16.95;7.95;;;;;;;17.28;100.00;101241.94;5261885;28;20503;-75
2023/08/15 05:57:38;;;;;;;15.90;7.22;;;;;;;17.44;100.00;101244.94;5262198;28;20029;-75
2023/08/15 06:00:10;;;;;;;13.20;5.97;;;;;;;17.40;100.00;101248.56;5262072;28;20485;-76
2023/08/15 06:02:42;;;;;;;15.60;6.82;;;;;;;17.45;100.00;101246.63;5244437;28;20036;-75
2023/08/15 06:05:13;;;;;;;13.23;6.57;;;;;;;17.58;100.00;101255.88;5262136;28;20082;-76
2023/08/15 06:07:44;;;;;;;17.33;7.70;;;;;;;17.60;100.00;101251.38;5244548;28;20029;-76
2023/08/15 06:10:16;;;;;;;11.97;8.00;;;;;;;17.62;100.00;101254.81;5262278;28;20496;-75
2023/08/15 06:12:47;;;;;;;15.53;7.67;;;;;;;17.68;100.00;101256.41;5261857;28;20033;-75
2023/08/15 06:15:19;;;;;;;13.47;7.37;;;;;;;17.78;100.00;101267.47;5244115;28;20064;-76
2023/08/15 06:17:50;;;;;;;14.33;7.83;;;;;;;17.83;100.00;101274.31;5261590;28;20124;-75
2023/08/15 06:20:21;;;;;;;14.27;7.23;;;;;;;17.88;100.00;101266.25;5261289;28;20079;-75
2023/08/15 06:22:53;;;;;;;12.33;7.23;;;;;;;17.99;100.00;101277.28;5243896;28;20029;-76
2023/08/15 06:25:24;;;;;;;20.63;9.30;;;;;;;18.03;100.00;101281.56;5227589;28;20036;-75
2023/08/15 06:27:56;;;;;;;15.07;8.10;;;;;;;18.07;100.00;101279.66;5261862;28;20041;-75
2023/08/15 06:30:27;;;;;;;12.03;6.77;;;;;;;18.11;100.00;101288.31;5261826;28;20468;-75
2023/08/15 06:32:58;;;;;;;14.60;7.20;;;;;;;18.18;100.00;101289.84;5264989;28;20033;-76
2023/08/15 06:35:30;;;;;;;14.57;7.23;;;;;;;18.27;100.00;101285.97;5266008;28;20079;-76
2023/08/15 06:38:01;;;;;;;18.73;7.13;;;;;;;18.29;100.00;101282.38;5248019;28;20083;-76
2023/08/15 06:40:33;;;;;;;16.10;6.20;;;;;;;18.46;99.93;101280.88;5265676;28;20037;-76
2023/08/15 06:43:04;;;;;;;17.03;6.83;;;;;;;18.46;99.43;101280.88;5265702;28;20065;-76
2023/08/15 06:45:36;;;;;;;15.13;7.03;;;;;;;18.59;98.66;101282.13;5265760;28;20040;-76
2023/08/15 06:48:08;;;;;;;13.65;6.53;;;;;;;18.69;98.15;101290.56;5265286;28;20033;-75
2023/08/15 06:50:39;;;;;;;12.03;6.37;;;;;;;18.79;97.47;101284.00;5247595;28;20040;-77
2023/08/15 06:53:10;;;;;;;14.50;6.50;;;;;;;18.81;96.47;101292.72;5265547;28;20495;-76
2023/08/15 06:55:42;;;;;;;18.77;6.80;;;;;;;18.78;96.26;101292.84;5265165;28;20040;-75
2023/08/15 06:58:13;;;;;;;12.77;6.77;;;;;;;18.86;96.73;101293.44;5265261;28;20086;-76
2023/08/15 07:00:44;;;;;;;16.50;7.03;;;;;;;19.02;95.60;101280.47;5265469;28;20071;-77
2023/08/15 07:03:16;;;;;;;13.40;6.23;;;;;;;19.19;94.86;101287.72;5265369;28;20488;-76
2023/08/15 07:05:49;;;;;;;14.05;6.40;;;;;;;19.32;94.64;101288.09;5265189;28;20021;-77
2023/08/15 07:08:20;;;;;;;12.88;6.25;;;;;;;19.46;93.24;101291.00;5265093;28;20033;-77
2023/08/15 07:10:56;;;;;;;14.17;6.73;;;;;;;19.53;91.94;101294.25;5265216;28;20036;-76
2023/08/15 07:13:27;;;;;;;10.35;5.38;;;;;;;19.67;91.12;101288.38;5265078;28;20071;-76
2023/08/15 07:15:58;;;;;;;11.37;5.47;;;;;;;19.60;90.37;101292.22;5264695;28;20032;-77
2023/08/15 07:18:30;;;;;;;15.93;5.80;;;;;;;19.48;90.67;101298.84;5264335;28;20460;-76
2023/08/15 07:21:02;;;;;;;15.30;5.97;;;;;;;19.66;90.47;101298.09;5264787;28;20495;-75
2023/08/15 07:23:33;;;;;;;13.38;5.95;;;;;;;19.78;90.15;101307.31;5264824;28;20036;-76
2023/08/15 07:26:05;;;;;;;10.70;5.47;;;;;;;19.90;89.73;101311.22;5264557;28;20033;-76
2023/08/15 07:28:36;;;;;;;15.17;5.40;;;;;;;19.94;88.59;101309.31;5264795;28;20041;-76
2023/08/15 07:31:07;;;;;;;11.13;5.30;;;;;;;20.22;88.55;101314.22;5264840;28;20029;-76
2023/08/15 07:33:39;;;;;;;8.87;4.57;;;;;;;20.44;87.46;101313.25;5266082;28;20082;-74
2023/08/15 07:36:10;;;;;;;13.20;5.60;;;;;;;20.38;85.59;101317.03;5246987;28;20025;-75
2023/08/15 07:38:42;;;;;;;12.67;5.13;;;;;;;20.49;86.73;101320.03;5264570;28;20112;-76
2023/08/15 07:41:13;;;;;;;11.02;4.18;;;;;;;20.45;85.15;101328.19;5264244;28;20025;-76
2023/08/15 07:43:44;;;;;;;12.67;5.03;;;;;;;20.46;85.37;101328.13;5263654;28;20373;-76
2023/08/15 07:46:16;;;;;;;14.20;4.67;;;;;;;20.52;85.21;101340.25;5264731;28;20033;-75
2023/08/15 07:48:47;;;;;;;12.53;4.93;;;;;;;20.37;85.08;101326.78;5264552;28;20048;-75
2023/08/15 07:51:19;;;;;;;11.63;5.60;;;;;;;20.32;85.85;101323.47;5264760;28;20054;-75
2023/08/15 07:53:50;;;;;;;12.07;5.13;;;;;;;20.30;86.26;101330.66;5246987;28;20025;-75
2023/08/15 07:56:22;;;;;;;10.43;4.57;;;;;;;20.50;85.39;101329.72;5265040;28;20040;-75
2023/08/15 07:58:53;;;;;;;8.30;4.40;;;;;;;20.45;85.55;101329.09;5264551;28;20067;-75
2023/08/15 08:01:24;;;;;;;9.63;4.13;;;;;;;20.68;85.25;101338.63;5264593;28;20032;-74
2023/08/15 08:03:56;;;;;;;11.10;3.97;;;;;;;20.71;84.00;101335.84;5264528;28;20037;-75
2023/08/15 08:06:28;;;;;;;11.73;5.28;;;;;;;20.83;83.46;101341.50;5246647;28;20059;-76
2023/08/15 08:08:59;;;;;;;9.32;4.13;;;;;;;20.84;83.16;101344.09;5264179;28;20134;-75
2023/08/15 08:11:31;;;;;;;11.27;4.23;;;;;;;20.85;83.24;101340.50;5264454;28;20537;-76
2023/08/15 08:14:03;;;;;;;10.47;4.70;;;;;;;21.16;82.27;101338.19;5264345;28;20075;-76
2023/08/15 08:16:34;;;;;;;9.75;4.38;;;;;;;21.30;81.95;101335.72;5264273;28;20033;-75
2023/08/15 08:19:06;;;;;;;11.20;5.97;;;;;;;21.33;80.77;101337.34;5263748;28;20438;-76
2023/08/15 08:21:37;;;;;;;13.70;4.50;;;;;;;21.24;80.67;101336.03;5264166;28;20499;-75
2023/08/15 08:24:08;;;;;;;11.87;4.00;;;;;;;21.30;80.32;101338.38;5264405;28;20498;-77
2023/08/15 08:26:40;;;;;;;14.33;4.83;;;;;;;21.53;79.59;101349.69;5264905;28;20116;-78
2023/08/15 08:29:12;;;;;;;11.40;4.72;;;;;;;21.45;79.30;101340.25;5264779;28;20029;-76
2023/08/15 08:31:43;;;;;;;10.95;3.85;;;;;;;21.51;78.60;101340.91;5264325;28;20029;-76
2023/08/15 08:34:15;;;;;;;9.97;4.10;;;;;;;21.46;78.82;101342.00;5264223;28;20053;-76
2023/08/15 08:36:46;;;;;;;8.30;3.57;;;;;;;21.64;78.91;101342.88;5265226;28;20140;-76
2023/08/15 08:39:18;;;;;;;13.43;4.30;;;;;;;21.80;78.40;101344.75;5247021;28;20044;-76
2023/08/15 08:41:50;;;;;;;10.63;4.10;;;;;;;21.69;77.32;101345.31;5264676;28;20029;-76
2023/08/15 08:44:23;;;;;;;9.93;3.95;;;;;;;21.70;77.27;101344.34;5246229;28;20048;-76
2023/08/15 08:46:55;;;;;;;10.32;4.15;;;;;;;21.59;77.62;101346.69;5263961;28;20029;-76
2023/08/15 08:49:27;;;;;;;10.87;4.00;;;;;;;21.66;79.21;101356.94;5263565;28;20032;-77
2023/08/15 08:51:59;;;;;;;;;;;;;;;21.85;76.92;101350.69;5263908;28;20021;-75
2023/08/15 08:54:30;;;;;;;10.43;3.53;;;;;;;22.04;76.78;101345.28;5262272;28;19973;-76
2023/08/15 08:57:04;;;;;;;7.72;3.20;;;;;;;22.11;74.91;101349.34;5263601;28;20120;-76
2023/08/15 08:59:39;;;;;;;7.38;3.65;;;;;;;22.52;74.17;101356.06;5263271;28;20033;-76
2023/08/15 09:02:14;;;;;;;13.10;4.32;;;;;;;22.81;71.90;101367.75;5263021;28;20029;-77
2023/08/15 09:04:47;;;;;;;14.30;4.20;;;;;;;23.13;71.35;101362.50;5263057;28;20377;-75
2023/08/15 09:07:18;;;;;;;12.23;3.92;;;;;;;22.90;72.44;101367.25;5262870;28;20024;-75
2023/08/15 09:09:50;;;;;;;7.63;3.37;;;;;;;22.93;71.49;101364.44;5244829;28;20033;-76
2023/08/15 09:12:39;;;;;;;11.63;3.50;;;;;;;23.03;72.49;101363.94;5262967;28;20134;-76
2023/08/15 09:15:10;;;;;;;10.27;3.75;;;;;;;22.79;71.71;101360.84;5262589;28;20036;-75
2023/08/15 09:17:43;;;;;;;9.50;3.95;;;;;;;22.80;70.69;101365.19;5262722;28;20032;-75
2023/08/15 09:20:15;;;;;;;;;;;;;;;23.32;70.27;101380.06;5244869;28;20110;-75
2023/08/15 09:22:47;;;;;;;12.35;3.33;;;;;;;23.37;71.51;101368.22;5262867;28;19920;-76
2023/08/15 09:25:19;;;;;;;10.48;3.70;;;;;;;23.61;70.78;101363.28;5262826;28;20415;-77
2023/08/15 09:27:50;;;;;;;9.67;3.70;;;;;;;23.21;68.99;101365.56;5244989;28;20028;-76
2023/08/15 09:30:22;;;;;;;7.90;3.37;;;;;;;23.31;69.27;101376.53;5262729;28;20504;-75
2023/08/15 09:32:53;;;;;;;8.48;3.22;;;;;;;23.22;69.00;101379.75;5244878;28;20025;-74
2023/08/15 09:35:24;;;;;;;9.33;3.20;;;;;;;23.45;67.93;101379.25;5262733;28;20045;-76
2023/08/15 09:37:56;;;;;;;9.30;3.37;;;;;;;23.66;66.96;101378.97;5262646;28;20025;-76
2023/08/15 09:40:27;;;;;;;12.50;3.60;;;;;;;24.08;66.00;101382.72;5262830;28;20355;-76
2023/08/15 09:42:59;;;;;;;11.13;3.13;;;;;;;24.25;63.83;101389.69;5262588;28;20033;-75
2023/08/15 09:45:30;;;;;;;8.83;2.97;;;;;;;24.23;65.80;101374.75;5262532;28;20025;-76
2023/08/15 09:48:02;;;;;;;7.80;3.35;;;;;;;24.02;64.24;101385.75;5262557;28;20268;-77
2023/08/15 09:50:34;;;;;;;10.50;4.32;;;;;;;24.05;64.35;101385.56;5262429;28;20025;-75
2023/08/15 09:53:06;;;;;;;8.02;3.53;;;;;;;24.33;63.37;101390.09;5262037;28;20082;-75
2023/08/15 09:55:38;;;;;;;8.70;3.40;;;;;;;24.56;63.07;101386.03;5262451;28;20392;-75
2023/08/15 09:58:10;;;;;;;8.18;3.53;;;;;;;24.74;62.32;101400.00;5262444;28;20460;-76
2023/08/15 10:00:41;;;;;;;7.43;3.17;;;;;;;24.84;61.29;101394.97;5262226;28;20032;-76
2023/08/15 10:03:26;;;;;;;7.47;3.10;;;;;;;24.63;64.41;101399.81;5262441;28;20267;-76
2023/08/15 10:06:01;;;;;;;7.50;2.90;;;;;;;25.11;60.51;101410.16;5264109;28;20051;-76
2023/08/15 10:08:34;;;;;;;7.78;3.38;;;;;;;24.68;60.77;101411.06;5248728;28;20029;-76
2023/08/15 10:11:09;;;;;;;10.35;3.38;;;;;;;24.34;62.92;101414.91;5266616;28;20032;-75
2023/08/15 10:13:41;;;;;;;7.32;3.50;;;;;;;24.12;62.76;101418.88;5266441;28;20417;-76
2023/08/15 10:16:13;;;;;;;10.70;3.05;;;;;;;24.47;61.17;101413.25;5266570;28;20468;-76
2023/08/15 10:18:56;;;;;;;8.82;3.42;;;;;;;25.83;57.61;101416.09;5266100;28;20349;-76
2023/08/15 10:21:50;;;;;;;9.82;3.58;;;;;;;26.05;56.14;101424.50;5266228;28;20112;-77
2023/08/15 10:24:22;;;;;;;7.32;3.00;;;;;;;24.89;58.82;101418.66;5266075;28;20090;-75
2023/08/15 10:26:56;;;;;;;9.30;3.00;;;;;;;25.22;60.11;101418.31;5266149;28;20427;-76
2023/08/15 10:29:29;;;;;;;6.22;2.47;;;;;;;25.74;57.58;101435.41;5266187;28;20037;-76
2023/08/15 10:32:01;;;;;;;6.28;3.13;;;;;;;26.86;56.16;101428.72;5265957;28;20021;-77
2023/08/15 10:34:33;;;;;;;8.38;3.10;;;;;;;27.86;51.37;101432.09;5265848;28;20072;-76
2023/08/15 10:37:28;;;;;;;8.23;3.30;;;;;;;27.40;51.52;101432.84;5265976;28;20029;-77
2023/08/15 10:40:11;;;;;;;6.85;2.70;;;;;;;27.20;50.95;101431.63;5248112;28;20031;-77
2023/08/15 10:43:00;;;;;;;9.10;3.22;;;;;;;27.46;49.43;101430.56;5265748;28;20474;-76
2023/08/15 10:45:36;;;;;;;7.45;2.95;;;;;;;27.59;49.42;101427.84;5265775;28;20099;-75
2023/08/15 10:48:09;;;;;;;10.00;3.20;;;;;;;28.92;45.17;101437.28;5265767;28;20417;-77
2023/08/15 10:50:45;;;;;;;7.43;3.33;;;;;;;30.46;43.29;101425.47;5265654;28;20040;-78
2023/08/15 10:53:17;;;;;;;7.68;2.72;;;;;;;30.23;40.69;101433.69;5265546;28;20041;-77
2023/08/15 10:55:48;;;;;;;8.30;2.95;;;;;;;30.35;42.53;101426.41;5265261;28;20468;-77
2023/08/15 10:58:21;;;;;;;;;;;;;;;30.68;41.20;101424.47;5266075;28;20036;-77
2023/08/15 11:00:52;;;;;;;7.03;2.72;;;;;;;30.36;42.30;101422.72;5265327;28;19908;-77
2023/08/15 11:03:25;;;;;;;12.55;3.20;;;;;;;31.69;39.68;101424.44;5265579;28;20108;-77
2023/08/15 11:06:12;;;;;;;8.75;3.50;;;;;;;31.29;39.69;101428.06;5265440;28;20025;-76
2023/08/15 11:08:49;;;;;;;8.35;3.08;;;;;;;31.70;39.50;101420.72;5265038;28;20067;-77
2023/08/15 11:11:20;;;;;;;6.63;3.13;;;;;;;30.96;39.22;101419.34;5265251;28;20079;-77
2023/08/15 11:13:54;;;;;;;12.90;3.05;;;;;;;30.07;40.90;101417.16;5247342;28;20037;-77
2023/08/15 11:16:25;;;;;;;9.93;2.83;;;;;;;28.72;42.65;101406.72;5265033;28;20499;-76
2023/08/15 11:18:59;;;;;;;8.02;2.60;;;;;;;29.28;43.95;101408.44;5263943;28;20028;-75
2023/08/15 11:21:30;;;;;;;6.10;2.58;;;;;;;30.95;40.12;101414.91;5264892;28;20457;-78
2023/08/15 11:24:02;;;;;;;6.10;3.17;;;;;;;30.64;40.15;101414.94;5265275;28;20037;-76
2023/08/15 11:26:35;;;;;;;6.72;2.78;;;;;;;29.74;41.07;101414.50;5265261;28;20112;-78
2023/08/15 11:29:09;;;;;;;8.63;3.42;;;;;;;28.65;43.48;101418.88;5265032;28;20098;-75
2023/08/15 11:31:40;;;;;;;6.80;3.20;;;;;;;27.65;44.40;101432.75;5264595;28;20043;-75
2023/08/15 11:34:14;;;;;;;7.18;3.13;;;;;;;27.29;46.81;101418.44;5266844;28;20400;-75
2023/08/15 11:36:46;;;;;;;7.85;3.05;;;;;;;26.77;48.52;101427.53;5264635;28;20037;-77
2023/08/15 11:39:17;;;;;;;;;;;;;;;26.68;48.83;101433.56;5264967;28;20114;-75
2023/08/15 11:41:49;;;;;;;8.67;2.83;;;;;;;26.18;50.77;101430.75;5246605;28;19917;-77
2023/08/15 11:44:21;;;;;;;;;;;;;;;26.33;49.50;101426.16;5265050;28;20037;-75